| time (UTC) | temp F | wind direction | speed MPH | gust MPH | rain 1hr in | rain 24hr in | rain mn in | humidity % | barometer mb |
| 20260903110114 | 76 | 169 | 2.0 | 11.0 | 0.00 | 0.00 | 0.00 | 41 | 1026.6 |
| 20260903104633 | 75 | 234 | 1.0 | 13.0 | 0.00 | 0.00 | 0.00 | 44 | 1026.7 |
| 20260903103109 | 74 | 0 | 3.0 | 11.0 | 0.00 | 0.00 | 0.00 | 47 | 1026.9 |
| 20260903101606 | 74 | 108 | 4.0 | 12.0 | 0.00 | 0.00 | 0.00 | 46 | 1026.9 |
| 20260903100108 | 74 | 255 | 2.0 | 13.0 | 0.00 | 0.00 | 0.00 | 48 | 1026.9 |
| 20260903094609 | 73 | 238 | 3.0 | 9.0 | 0.00 | 0.00 | 0.00 | 50 | 1027.0 |
| 20260903093106 | 73 | 175 | 2.0 | 10.0 | 0.00 | 0.00 | 0.00 | 51 | 1026.8 |
| 20260903091607 | 72 | 295 | 3.0 | 9.0 | 0.00 | 0.00 | 0.00 | 53 | 1026.9 |
| 20260903090107 | 72 | 192 | 2.0 | 6.0 | 0.00 | 0.00 | 0.00 | 56 | 1026.7 |
| 20260903084625 | 71 | 228 | 3.0 | 8.0 | 0.00 | 0.00 | 0.00 | 56 | 1026.8 |
| 20260903083105 | 71 | 231 | 3.0 | 7.0 | 0.00 | 0.00 | 0.00 | 55 | 1026.8 |
| 20260903081605 | 71 | 111 | 3.0 | 8.0 | 0.00 | 0.00 | 0.00 | 56 | 1026.7 |
| 20260903080103 | 70 | 99 | 1.0 | 7.0 | 0.00 | 0.00 | 0.00 | 57 | 1026.6 |
| 20260903074605 | 69 | 161 | 3.0 | 6.0 | 0.00 | 0.00 | 0.00 | 57 | 1026.8 |
| 20260903073112 | 68 | 324 | 1.0 | 7.0 | 0.00 | 0.00 | 0.00 | 61 | 1026.8 |
| 20260903071607 | 65 | 148 | 0.0 | 5.0 | 0.00 | 0.00 | 0.00 | 67 | 1026.8 |
| 20260903070105 | 61 | 151 | 0.0 | 3.0 | 0.00 | 0.00 | 0.00 | 78 | 1026.9 |
| 20260903064606 | 56 | 0 | 0.0 | 0.0 | 0.00 | 0.00 | 0.00 | 89 | 1026.8 |
| 20260903063105 | 53 | 0 | 0.0 | 0.0 | 0.00 | 0.00 | 0.00 | 89 | 1026.7 |
| 20260903061612 | 52 | 0 | 0.0 | 0.0 | 0.00 | 0.00 | 0.00 | 90 | 1026.6 |
| 20260903060106 | 51 | 0 | 0.0 | 0.0 | 0.00 | 0.00 | 0.00 | 90 | 1026.4 |
| 20260903054606 | 50 | 0 | 0.0 | 0.0 | 0.00 | 0.00 | 0.00 | 90 | 1026.4 |
| 20260903053119 | 50 | 0 | 0.0 | 0.0 | 0.00 | 0.00 | 0.00 | 89 | 1026.2 |
| 20260903051602 | 50 | 0 | 0.0 | 0.0 | 0.00 | 0.00 | 0.00 | 89 | 1026.2 |
| 20260903050109 | 50 | 0 | 0.0 | 0.0 | 0.00 | 0.00 | 0.00 | 88 | 1026.1 |
| 20260903044609 | 51 | 0 | 0.0 | 0.0 | 0.00 | 0.00 | 0.00 | 88 | 1026.0 |
| 20260903043106 | 51 | 0 | 0.0 | 0.0 | 0.00 | 0.00 | 0.00 | 88 | 1025.9 |
| 20260903041602 | 51 | 0 | 0.0 | 0.0 | 0.00 | 0.00 | 0.00 | 88 | 1025.9 |
| 20260903040114 | 52 | 0 | 0.0 | 0.0 | 0.00 | 0.00 | 0.00 | 87 | 1026.0 |
| 20260903034604 | 52 | 0 | 0.0 | 0.0 | 0.00 | 0.00 | 0.00 | 87 | 1026.0 |
| 20260903033105 | 53 | 0 | 0.0 | 0.0 | 0.00 | 0.00 | 0.00 | 86 | 1026.0 |
| 20260903031624 | 53 | 0 | 0.0 | 0.0 | 0.00 | 0.00 | 0.00 | 85 | 1026.0 |
| 20260903030117 | 54 | 0 | 0.0 | 0.0 | 0.00 | 0.00 | 0.00 | 85 | 1025.9 |
| 20260903024605 | 54 | 0 | 0.0 | 0.0 | 0.00 | 0.00 | 0.00 | 85 | 1025.9 |
| 20260903023106 | 55 | 0 | 0.0 | 0.0 | 0.00 | 0.00 | 0.00 | 84 | 1025.9 |
| 20260903021608 | 55 | 0 | 0.0 | 0.0 | 0.00 | 0.00 | 0.00 | 83 | 1025.9 |
| 20260903020103 | 56 | 0 | 0.0 | 0.0 | 0.00 | 0.00 | 0.00 | 83 | 1025.9 |
| 20260903014612 | 56 | 0 | 0.0 | 0.0 | 0.00 | 0.00 | 0.00 | 82 | 1025.9 |
| 20260903013106 | 57 | 0 | 0.0 | 0.0 | 0.00 | 0.00 | 0.00 | 82 | 1026.1 |
| 20260903011620 | 57 | 0 | 0.0 | 0.0 | 0.00 | 0.00 | 0.00 | 80 | 1026.0 |
| 20260903010119 | 58 | 0 | 0.0 | 0.0 | 0.00 | 0.00 | 0.00 | 79 | 1026.0 |
| 20260903004606 | 58 | 0 | 0.0 | 0.0 | 0.00 | 0.00 | 0.00 | 79 | 1026.0 |
| 20260903003106 | 58 | 0 | 0.0 | 0.0 | 0.00 | 0.00 | 0.00 | 78 | 1026.0 |
| 20260903001606 | 59 | 0 | 0.0 | 0.0 | 0.00 | 0.00 | 0.00 | 78 | 1025.9 |
| 20260903000107 | 59 | 0 | 0.0 | 0.0 | 0.00 | 0.00 | 0.00 | 77 | 1026.0 |
| 20260902234606 | 60 | 0 | 0.0 | 0.0 | 0.00 | 0.00 | 0.00 | 76 | 1026.1 |
| 20260902233110 | 60 | 0 | 0.0 | 0.0 | 0.00 | 0.00 | 0.00 | 75 | 1025.9 |
| 20260902231613 | 61 | 0 | 0.0 | 0.0 | 0.00 | 0.00 | 0.00 | 74 | 1025.9 |
| 20260902230110 | 62 | 0 | 0.0 | 0.0 | 0.00 | 0.00 | 0.00 | 73 | 1026.0 |
| 20260902224608 | 63 | 0 | 0.0 | 0.0 | 0.00 | 0.00 | 0.00 | 71 | 1026.0 |
| 20260902223111 | 63 | 0 | 0.0 | 0.0 | 0.00 | 0.00 | 0.00 | 70 | 1026.1 |
| 20260902221628 | 64 | 0 | 0.0 | 0.0 | 0.00 | 0.00 | 0.00 | 68 | 1026.1 |
| 20260902220110 | 65 | 0 | 0.0 | 2.0 | 0.00 | 0.00 | 0.00 | 67 | 1026.0 |
| 20260902214606 | 65 | 161 | 0.0 | 1.0 | 0.00 | 0.00 | 0.00 | 67 | 1025.9 |
| 20260902213102 | 65 | 0 | 0.0 | 3.0 | 0.00 | 0.00 | 0.00 | 66 | 1025.9 |
| 20260902211609 | 65 | 152 | 0.0 | 3.0 | 0.00 | 0.00 | 0.00 | 64 | 1025.9 |
| 20260902210106 | 66 | 0 | 0.0 | 4.0 | 0.00 | 0.00 | 0.00 | 63 | 1026.1 |
| 20260902204607 | 66 | 166 | 1.0 | 3.0 | 0.00 | 0.00 | 0.00 | 63 | 1026.1 |
| 20260902203108 | 66 | 0 | 0.0 | 3.0 | 0.00 | 0.00 | 0.00 | 62 | 1026.0 |
| 20260902201611 | 66 | 146 | 0.0 | 3.0 | 0.00 | 0.00 | 0.00 | 63 | 1025.9 |
| 20260902200108 | 66 | 145 | 1.0 | 4.0 | 0.00 | 0.00 | 0.00 | 63 | 1025.7 |
| 20260902194605 | 67 | 159 | 0.0 | 3.0 | 0.00 | 0.00 | 0.00 | 62 | 1025.7 |
| 20260902193108 | 67 | 0 | 0.0 | 2.0 | 0.00 | 0.00 | 0.00 | 61 | 1025.5 |
| 20260902191634 | 68 | 0 | 0.0 | 2.0 | 0.00 | 0.00 | 0.00 | 61 | 1025.3 |
| 20260902190112 | 68 | 0 | 0.0 | 2.0 | 0.00 | 0.00 | 0.00 | 61 | 1025.1 |
| 20260902184606 | 69 | 321 | 0.0 | 2.0 | 0.00 | 0.00 | 0.00 | 59 | 1025.0 |
| 20260902183134 | 70 | 0 | 0.0 | 3.0 | 0.00 | 0.00 | 0.00 | 58 | 1024.8 |
| 20260902181613 | 71 | 341 | 0.0 | 2.0 | 0.00 | 0.00 | 0.00 | 55 | 1024.7 |
| 20260902180108 | 72 | 0 | 1.0 | 5.0 | 0.00 | 0.00 | 0.00 | 55 | 1024.6 |
| 20260902174613 | 72 | 124 | 1.0 | 6.0 | 0.00 | 0.00 | 0.00 | 54 | 1024.7 |
| 20260902173114 | 73 | 0 | 0.0 | 4.0 | 0.00 | 0.00 | 0.00 | 52 | 1024.6 |
| 20260902171619 | 74 | 98 | 2.0 | 7.0 | 0.00 | 0.00 | 0.00 | 51 | 1024.5 |
| 20260902170106 | 75 | 0 | 1.0 | 6.0 | 0.00 | 0.00 | 0.00 | 50 | 1024.4 |
| 20260902164611 | 76 | 223 | 1.0 | 10.0 | 0.00 | 0.00 | 0.00 | 49 | 1024.2 |
| 20260902163105 | 76 | 192 | 0.0 | 9.0 | 0.00 | 0.00 | 0.00 | 49 | 1024.3 |
| 20260902161608 | 77 | 130 | 2.0 | 5.0 | 0.00 | 0.00 | 0.00 | 47 | 1024.3 |
| 20260902160116 | 77 | 117 | 1.0 | 5.0 | 0.00 | 0.00 | 0.00 | 46 | 1024.3 |
| 20260902154610 | 78 | 120 | 2.0 | 8.0 | 0.00 | 0.00 | 0.00 | 44 | 1024.3 |
| 20260902153104 | 78 | 252 | 2.0 | 8.0 | 0.00 | 0.00 | 0.00 | 45 | 1024.4 |
| 20260902151608 | 78 | 177 | 1.0 | 6.0 | 0.00 | 0.00 | 0.00 | 44 | 1024.3 |
| 20260902150103 | 78 | 150 | 3.0 | 7.0 | 0.00 | 0.00 | 0.00 | 43 | 1024.6 |
| 20260902144604 | 79 | 171 | 2.0 | 10.0 | 0.00 | 0.00 | 0.00 | 43 | 1024.5 |
| 20260902143101 | 79 | 126 | 1.0 | 8.0 | 0.00 | 0.00 | 0.00 | 46 | 1024.6 |
| 20260902141605 | 80 | 196 | 2.0 | 7.0 | 0.00 | 0.00 | 0.00 | 43 | 1024.6 |
| 20260902140106 | 80 | 323 | 3.0 | 6.0 | 0.00 | 0.00 | 0.00 | 43 | 1024.8 |
| 20260902134606 | 79 | 217 | 3.0 | 9.0 | 0.00 | 0.00 | 0.00 | 43 | 1024.9 |
| 20260902133108 | 79 | 72 | 3.0 | 8.0 | 0.00 | 0.00 | 0.00 | 46 | 1024.9 |
| 20260902131608 | 79 | 115 | 2.0 | 10.0 | 0.00 | 0.00 | 0.00 | 46 | 1024.9 |
| 20260902130105 | 79 | 109 | 3.0 | 9.0 | 0.00 | 0.00 | 0.00 | 47 | 1025.0 |
| 20260902124602 | 79 | 82 | 3.0 | 8.0 | 0.00 | 0.00 | 0.00 | 49 | 1025.1 |
| 20260902123107 | 78 | 230 | 3.0 | 7.0 | 0.00 | 0.00 | 0.00 | 51 | 1025.2 |
| 20260902121602 | 78 | 138 | 3.0 | 10.0 | 0.00 | 0.00 | 0.00 | 49 | 1025.3 |
| 20260902120112 | 77 | 280 | 3.0 | 8.0 | 0.00 | 0.00 | 0.00 | 51 | 1025.3 |
| 20260902114601 | 76 | 198 | 2.0 | 10.0 | 0.00 | 0.00 | 0.00 | 51 | 1025.2 |
| 20260902113107 | 76 | 200 | 4.0 | 10.0 | 0.00 | 0.00 | 0.00 | 53 | 1025.3 |
| 20260902111609 | 75 | 173 | 3.0 | 9.0 | 0.00 | 0.00 | 0.00 | 52 | 1025.5 |